KCWA

Central Wisconsin Airport

Mosinee, Wisconsin, USA
KCWA 221930Z 2220/2318 05009G16KT P6SM SCT035 BKN060 FM230000 01003KT P6SM SCT040 FM230800 34006KT P6SM FEW250
Issued Valid From Valid To
Jul-22 @ 19:30 UTC
(53 minutes ago)
Jul-22 @ 20:00 UTC
(23 minutes ago)
Jul-23 @ 18:00 UTC
(in 22 hours)
Jul-22 @ 20:00 to Jul-23 @ 00:00
KCWA 221930Z 2220/2318 05009G16KT P6SM SCT035 BKN060
Wind Visibility Clouds
50° at 9 knots
 Gusting to 16 knots
Greater than 6 miles
  • Scattered at 3,500' AGL
  • Broken at 6,000' AGL
From Jul-23 @ 00:00 to Jul-23 @ 08:00
FM230000 01003KT P6SM SCT040
Wind Visibility Clouds
10° at 3 knots Greater than 6 miles
  • Scattered at 4,000' AGL
From Jul-23 @ 08:00 to Jul-23 @ 18:00
FM230800 34006KT P6SM FEW250
Wind Visibility Clouds
340° at 6 knots Greater than 6 miles
  • Few at 25,000' AGL
KCWA 221930Z 2220/2318 05009G16KT P6SM SCT035 BKN060 FM230000 01003KT P6SM SCT040 FM230800 34006KT P6SM FEW250
Issued Jul-22 @ 19:30 UTC
(53 minutes ago)
Valid From Jul-22 @ 20:00 UTC
(23 minutes ago)
Valid To Jul-23 @ 18:00 UTC
(in 22 hours)
Jul-22 @ 20:00 - Jul-23 @ 00:00
Wind Visibility
50° at 9 knots
 Gusting to 16 knots
Greater than 6 miles
Clouds
  • Scattered at 3,500' AGL
  • Broken at 6,000' AGL
From Jul-23 @ 00:00 - Jul-23 @ 08:00
Wind Visibility
10° at 3 knots Greater than 6 miles
Clouds
  • Scattered at 4,000' AGL
From Jul-23 @ 08:00 - Jul-23 @ 18:00
Wind Visibility
340° at 6 knots Greater than 6 miles
Clouds
  • Few at 25,000' AGL